Kingston, Jamaica
Current Conditions -  °F | °C
As of 6:00 PM on Tuesday 27 Jan 2015 (Local Time) from MKJP Reporting Station
Broken Clouds Broken Clouds  
Wind Chill: 79°   Ceiling: 3400
Heat Index: 81°   Visibility: 6mi
Dew Point: 70°   Wind: 10mph
Humidity: 74%   Direction: 350°N
Pressure: 29.94"   Gusts: NA
Location:  17.99°N, 76.8°W
Report Text: MKJP 272300Z 35009KT 9999 FEW020 BKN034 26/21 Q1014
Loading
Personal Weather Stations






























Interactive Weather Map New forecast layout! Learn more

10-Day Weather Forecast

Advertisements
Track Severe Weather on mobile